sensor_id;sensor_type;location;lat;lon;timestamp;P1;durP1;ratioP1;P2;durP2;ratioP2
43835;SDS011;39345;43.964;25.340;2022-10-26T00:00:25;7.00;;;5.03;;
43835;SDS011;39345;43.964;25.340;2022-10-26T00:02:53;8.45;;;5.43;;
43835;SDS011;39345;43.964;25.340;2022-10-26T00:05:21;7.13;;;4.85;;
43835;SDS011;39345;43.964;25.340;2022-10-26T00:07:49;7.43;;;5.30;;
43835;SDS011;39345;43.964;25.340;2022-10-26T00:10:17;7.20;;;5.05;;
43835;SDS011;39345;43.964;25.340;2022-10-26T00:12:48;9.23;;;4.97;;
43835;SDS011;39345;43.964;25.340;2022-10-26T00:15:17;8.70;;;5.45;;
43835;SDS011;39345;43.964;25.340;2022-10-26T00:17:45;7.85;;;5.15;;
43835;SDS011;39345;43.964;25.340;2022-10-26T00:20:13;7.70;;;5.53;;
43835;SDS011;39345;43.964;25.340;2022-10-26T00:22:41;8.95;;;5.40;;
43835;SDS011;39345;43.964;25.340;2022-10-26T00:25:08;7.15;;;5.30;;
43835;SDS011;39345;43.964;25.340;2022-10-26T00:27:36;7.55;;;5.07;;
43835;SDS011;39345;43.964;25.340;2022-10-26T00:30:04;7.45;;;5.20;;
43835;SDS011;39345;43.964;25.340;2022-10-26T00:32:32;7.85;;;5.18;;
43835;SDS011;39345;43.964;25.340;2022-10-26T00:34:59;7.28;;;5.22;;
43835;SDS011;39345;43.964;25.340;2022-10-26T00:37:46;8.13;;;5.22;;
43835;SDS011;39345;43.964;25.340;2022-10-26T00:40:14;6.70;;;4.80;;
43835;SDS011;39345;43.964;25.340;2022-10-26T00:42:42;7.13;;;4.80;;
43835;SDS011;39345;43.964;25.340;2022-10-26T00:47:43;7.55;;;5.07;;
43835;SDS011;39345;43.964;25.340;2022-10-26T00:50:17;10.07;;;5.32;;
43835;SDS011;39345;43.964;25.340;2022-10-26T00:52:45;9.77;;;5.50;;
43835;SDS011;39345;43.964;25.340;2022-10-26T00:55:13;7.20;;;5.03;;
43835;SDS011;39345;43.964;25.340;2022-10-26T00:57:41;8.43;;;5.38;;
43835;SDS011;39345;43.964;25.340;2022-10-26T01:00:08;9.13;;;5.30;;
43835;SDS011;39345;43.964;25.340;2022-10-26T01:02:36;9.60;;;5.50;;
43835;SDS011;39345;43.964;25.340;2022-10-26T01:05:03;8.52;;;5.43;;
43835;SDS011;39345;43.964;25.340;2022-10-26T01:07:32;9.57;;;5.45;;
43835;SDS011;39345;43.964;25.340;2022-10-26T01:10:00;7.05;;;5.32;;
43835;SDS011;39345;43.964;25.340;2022-10-26T01:12:27;10.55;;;5.40;;
43835;SDS011;39345;43.964;25.340;2022-10-26T01:14:55;8.02;;;5.50;;
43835;SDS011;39345;43.964;25.340;2022-10-26T01:22:37;10.85;;;5.07;;
43835;SDS011;39345;43.964;25.340;2022-10-26T01:25:11;7.97;;;5.10;;
43835;SDS011;39345;43.964;25.340;2022-10-26T01:40:31;10.20;;;5.90;;
43835;SDS011;39345;43.964;25.340;2022-10-26T01:43:01;8.98;;;5.47;;
43835;SDS011;39345;43.964;25.340;2022-10-26T01:45:30;11.52;;;5.30;;
43835;SDS011;39345;43.964;25.340;2022-10-26T01:47:58;8.55;;;5.53;;
43835;SDS011;39345;43.964;25.340;2022-10-26T01:50:27;9.55;;;6.25;;
43835;SDS011;39345;43.964;25.340;2022-10-26T01:52:55;9.60;;;6.28;;
43835;SDS011;39345;43.964;25.340;2022-10-26T01:55:37;10.80;;;6.03;;
43835;SDS011;39345;43.964;25.340;2022-10-26T01:58:09;9.95;;;5.88;;
43835;SDS011;39345;43.964;25.340;2022-10-26T02:00:39;11.18;;;6.25;;
43835;SDS011;39345;43.964;25.340;2022-10-26T02:03:18;8.75;;;5.75;;
43835;SDS011;39345;43.964;25.340;2022-10-26T02:05:53;9.30;;;5.68;;
43835;SDS011;39345;43.964;25.340;2022-10-26T02:08:28;9.93;;;6.00;;
43835;SDS011;39345;43.964;25.340;2022-10-26T02:21:46;10.73;;;6.63;;
43835;SDS011;39345;43.964;25.340;2022-10-26T02:24:14;14.52;;;6.03;;
43835;SDS011;39345;43.964;25.340;2022-10-26T02:26:43;9.40;;;6.10;;
43835;SDS011;39345;43.964;25.340;2022-10-26T02:29:12;9.07;;;6.30;;
43835;SDS011;39345;43.964;25.340;2022-10-26T02:31:42;10.75;;;6.65;;
43835;SDS011;39345;43.964;25.340;2022-10-26T02:34:10;9.80;;;6.85;;
43835;SDS011;39345;43.964;25.340;2022-10-26T02:36:40;9.15;;;6.25;;
43835;SDS011;39345;43.964;25.340;2022-10-26T02:39:08;10.40;;;6.55;;
43835;SDS011;39345;43.964;25.340;2022-10-26T02:41:37;9.73;;;6.53;;
43835;SDS011;39345;43.964;25.340;2022-10-26T02:44:40;10.15;;;6.13;;
43835;SDS011;39345;43.964;25.340;2022-10-26T02:46:59;12.10;;;6.45;;
43835;SDS011;39345;43.964;25.340;2022-10-26T02:49:27;11.13;;;5.88;;
43835;SDS011;39345;43.964;25.340;2022-10-26T02:56:56;8.80;;;6.13;;
43835;SDS011;39345;43.964;25.340;2022-10-26T02:59:26;8.23;;;5.95;;
43835;SDS011;39345;43.964;25.340;2022-10-26T03:01:54;9.70;;;6.20;;
43835;SDS011;39345;43.964;25.340;2022-10-26T03:04:26;9.02;;;5.68;;
43835;SDS011;39345;43.964;25.340;2022-10-26T03:06:54;10.55;;;5.35;;
43835;SDS011;39345;43.964;25.340;2022-10-26T03:09:22;10.27;;;5.95;;
43835;SDS011;39345;43.964;25.340;2022-10-26T03:11:51;7.60;;;5.63;;
43835;SDS011;39345;43.964;25.340;2022-10-26T03:14:19;9.45;;;5.90;;
43835;SDS011;39345;43.964;25.340;2022-10-26T03:16:46;10.32;;;5.70;;
43835;SDS011;39345;43.964;25.340;2022-10-26T03:19:14;11.23;;;6.13;;
43835;SDS011;39345;43.964;25.340;2022-10-26T03:21:41;8.15;;;6.20;;
43835;SDS011;39345;43.964;25.340;2022-10-26T03:24:09;9.65;;;5.85;;
43835;SDS011;39345;43.964;25.340;2022-10-26T03:26:36;9.02;;;5.95;;
43835;SDS011;39345;43.964;25.340;2022-10-26T03:29:04;15.23;;;7.32;;
43835;SDS011;39345;43.964;25.340;2022-10-26T03:31:31;56.00;;;28.65;;
43835;SDS011;39345;43.964;25.340;2022-10-26T03:33:58;36.25;;;19.08;;
43835;SDS011;39345;43.964;25.340;2022-10-26T03:36:26;38.80;;;21.13;;
43835;SDS011;39345;43.964;25.340;2022-10-26T03:38:53;39.42;;;18.55;;
43835;SDS011;39345;43.964;25.340;2022-10-26T03:41:21;12.57;;;8.48;;
43835;SDS011;39345;43.964;25.340;2022-10-26T03:43:48;11.57;;;7.45;;
43835;SDS011;39345;43.964;25.340;2022-10-26T03:46:18;12.82;;;7.15;;
43835;SDS011;39345;43.964;25.340;2022-10-26T03:48:45;14.05;;;6.53;;
43835;SDS011;39345;43.964;25.340;2022-10-26T03:51:13;11.52;;;7.32;;
43835;SDS011;39345;43.964;25.340;2022-10-26T03:53:40;12.65;;;6.97;;
43835;SDS011;39345;43.964;25.340;2022-10-26T03:56:08;12.02;;;7.78;;
43835;SDS011;39345;43.964;25.340;2022-10-26T03:58:35;12.68;;;7.05;;
43835;SDS011;39345;43.964;25.340;2022-10-26T04:01:03;12.95;;;7.05;;
43835;SDS011;39345;43.964;25.340;2022-10-26T04:03:30;26.50;;;8.27;;
43835;SDS011;39345;43.964;25.340;2022-10-26T04:06:01;15.73;;;7.38;;
43835;SDS011;39345;43.964;25.340;2022-10-26T04:08:29;11.07;;;7.13;;
43835;SDS011;39345;43.964;25.340;2022-10-26T04:10:56;10.40;;;6.68;;
43835;SDS011;39345;43.964;25.340;2022-10-26T04:13:29;12.57;;;7.10;;
43835;SDS011;39345;43.964;25.340;2022-10-26T04:15:56;15.18;;;7.47;;
43835;SDS011;39345;43.964;25.340;2022-10-26T04:18:24;13.02;;;7.18;;
43835;SDS011;39345;43.964;25.340;2022-10-26T04:20:51;13.65;;;7.40;;
43835;SDS011;39345;43.964;25.340;2022-10-26T04:23:19;13.48;;;7.75;;
43835;SDS011;39345;43.964;25.340;2022-10-26T04:25:46;13.48;;;9.45;;
43835;SDS011;39345;43.964;25.340;2022-10-26T04:28:13;22.20;;;14.23;;
43835;SDS011;39345;43.964;25.340;2022-10-26T04:30:41;27.90;;;14.40;;
43835;SDS011;39345;43.964;25.340;2022-10-26T04:33:08;27.70;;;15.55;;
43835;SDS011;39345;43.964;25.340;2022-10-26T04:35:36;24.75;;;16.00;;
43835;SDS011;39345;43.964;25.340;2022-10-26T04:38:05;28.35;;;16.02;;
43835;SDS011;39345;43.964;25.340;2022-10-26T04:40:33;24.17;;;14.32;;
43835;SDS011;39345;43.964;25.340;2022-10-26T04:43:01;27.40;;;13.50;;
43835;SDS011;39345;43.964;25.340;2022-10-26T04:45:28;19.52;;;11.52;;
43835;SDS011;39345;43.964;25.340;2022-10-26T04:48:00;22.38;;;13.10;;
43835;SDS011;39345;43.964;25.340;2022-10-26T04:50:28;26.65;;;13.18;;
43835;SDS011;39345;43.964;25.340;2022-10-26T04:52:55;21.42;;;12.50;;
43835;SDS011;39345;43.964;25.340;2022-10-26T04:55:23;27.25;;;12.85;;
43835;SDS011;39345;43.964;25.340;2022-10-26T04:57:50;23.15;;;12.43;;
43835;SDS011;39345;43.964;25.340;2022-10-26T05:00:24;20.35;;;12.27;;
43835;SDS011;39345;43.964;25.340;2022-10-26T05:02:57;26.98;;;12.65;;
43835;SDS011;39345;43.964;25.340;2022-10-26T05:05:24;24.02;;;11.00;;
43835;SDS011;39345;43.964;25.340;2022-10-26T05:07:52;17.90;;;9.75;;
43835;SDS011;39345;43.964;25.340;2022-10-26T05:10:21;19.67;;;10.10;;
43835;SDS011;39345;43.964;25.340;2022-10-26T05:12:51;21.55;;;10.60;;
43835;SDS011;39345;43.964;25.340;2022-10-26T05:15:19;24.65;;;10.38;;
43835;SDS011;39345;43.964;25.340;2022-10-26T05:17:46;24.33;;;9.82;;
43835;SDS011;39345;43.964;25.340;2022-10-26T05:20:20;29.05;;;10.45;;
43835;SDS011;39345;43.964;25.340;2022-10-26T05:22:54;16.75;;;8.68;;
43835;SDS011;39345;43.964;25.340;2022-10-26T05:25:22;23.67;;;7.55;;
43835;SDS011;39345;43.964;25.340;2022-10-26T05:27:50;26.55;;;9.18;;
43835;SDS011;39345;43.964;25.340;2022-10-26T05:30:17;27.08;;;8.90;;
43835;SDS011;39345;43.964;25.340;2022-10-26T05:32:51;21.42;;;8.20;;
43835;SDS011;39345;43.964;25.340;2022-10-26T05:35:19;32.15;;;9.93;;
43835;SDS011;39345;43.964;25.340;2022-10-26T05:37:46;37.80;;;9.40;;
43835;SDS011;39345;43.964;25.340;2022-10-26T05:40:14;35.28;;;10.02;;
43835;SDS011;39345;43.964;25.340;2022-10-26T05:42:42;28.85;;;9.90;;
43835;SDS011;39345;43.964;25.340;2022-10-26T05:45:10;27.02;;;9.77;;
43835;SDS011;39345;43.964;25.340;2022-10-26T05:47:38;17.75;;;9.25;;
43835;SDS011;39345;43.964;25.340;2022-10-26T05:50:07;19.27;;;9.90;;
43835;SDS011;39345;43.964;25.340;2022-10-26T05:52:41;19.95;;;8.82;;
43835;SDS011;39345;43.964;25.340;2022-10-26T05:55:09;17.08;;;7.50;;
43835;SDS011;39345;43.964;25.340;2022-10-26T05:57:37;16.73;;;7.90;;
43835;SDS011;39345;43.964;25.340;2022-10-26T06:00:08;13.18;;;8.07;;
43835;SDS011;39345;43.964;25.340;2022-10-26T06:02:46;14.15;;;6.85;;
43835;SDS011;39345;43.964;25.340;2022-10-26T06:05:18;14.40;;;7.13;;
43835;SDS011;39345;43.964;25.340;2022-10-26T06:07:47;12.10;;;6.20;;
43835;SDS011;39345;43.964;25.340;2022-10-26T06:10:15;14.25;;;6.45;;
43835;SDS011;39345;43.964;25.340;2022-10-26T06:12:42;15.57;;;6.97;;
43835;SDS011;39345;43.964;25.340;2022-10-26T06:15:15;11.77;;;6.30;;
43835;SDS011;39345;43.964;25.340;2022-10-26T06:17:46;13.65;;;6.80;;
43835;SDS011;39345;43.964;25.340;2022-10-26T06:30:55;11.30;;;5.88;;
43835;SDS011;39345;43.964;25.340;2022-10-26T06:33:23;9.32;;;5.85;;
43835;SDS011;39345;43.964;25.340;2022-10-26T06:38:42;8.35;;;5.78;;
43835;SDS011;39345;43.964;25.340;2022-10-26T06:41:11;9.95;;;6.43;;
43835;SDS011;39345;43.964;25.340;2022-10-26T06:43:44;10.20;;;7.00;;
43835;SDS011;39345;43.964;25.340;2022-10-26T06:48:50;11.25;;;5.93;;
43835;SDS011;39345;43.964;25.340;2022-10-26T06:51:19;8.75;;;5.93;;
43835;SDS011;39345;43.964;25.340;2022-10-26T06:56:14;12.10;;;6.30;;
43835;SDS011;39345;43.964;25.340;2022-10-26T06:58:42;9.27;;;6.40;;
43835;SDS011;39345;43.964;25.340;2022-10-26T07:01:10;15.65;;;6.80;;
43835;SDS011;39345;43.964;25.340;2022-10-26T07:03:38;11.00;;;6.78;;
43835;SDS011;39345;43.964;25.340;2022-10-26T07:06:07;11.07;;;7.03;;
43835;SDS011;39345;43.964;25.340;2022-10-26T07:08:35;13.40;;;7.03;;
43835;SDS011;39345;43.964;25.340;2022-10-26T07:11:02;11.75;;;7.00;;
43835;SDS011;39345;43.964;25.340;2022-10-26T07:13:31;11.98;;;7.28;;
43835;SDS011;39345;43.964;25.340;2022-10-26T07:16:01;11.93;;;7.57;;
43835;SDS011;39345;43.964;25.340;2022-10-26T07:18:29;13.10;;;7.20;;
43835;SDS011;39345;43.964;25.340;2022-10-26T07:20:57;12.98;;;7.40;;
43835;SDS011;39345;43.964;25.340;2022-10-26T07:23:25;10.40;;;7.10;;
43835;SDS011;39345;43.964;25.340;2022-10-26T07:25:52;12.73;;;7.28;;
43835;SDS011;39345;43.964;25.340;2022-10-26T07:28:20;11.35;;;7.35;;
43835;SDS011;39345;43.964;25.340;2022-10-26T07:30:47;10.70;;;7.10;;
43835;SDS011;39345;43.964;25.340;2022-10-26T07:33:21;12.73;;;7.00;;
43835;SDS011;39345;43.964;25.340;2022-10-26T07:35:49;16.70;;;7.50;;
43835;SDS011;39345;43.964;25.340;2022-10-26T07:38:18;15.77;;;8.20;;
43835;SDS011;39345;43.964;25.340;2022-10-26T07:40:45;10.18;;;7.05;;
43835;SDS011;39345;43.964;25.340;2022-10-26T07:43:14;13.25;;;6.55;;
43835;SDS011;39345;43.964;25.340;2022-10-26T07:45:41;10.75;;;7.40;;
43835;SDS011;39345;43.964;25.340;2022-10-26T07:48:09;12.77;;;6.75;;
43835;SDS011;39345;43.964;25.340;2022-10-26T07:50:36;14.23;;;6.88;;
43835;SDS011;39345;43.964;25.340;2022-10-26T07:53:04;12.82;;;6.35;;
43835;SDS011;39345;43.964;25.340;2022-10-26T07:55:31;33.17;;;8.13;;
43835;SDS011;39345;43.964;25.340;2022-10-26T07:57:58;15.88;;;6.40;;
43835;SDS011;39345;43.964;25.340;2022-10-26T08:00:27;9.77;;;5.97;;
43835;SDS011;39345;43.964;25.340;2022-10-26T08:02:55;11.10;;;6.20;;
43835;SDS011;39345;43.964;25.340;2022-10-26T08:05:22;7.50;;;6.13;;
43835;SDS011;39345;43.964;25.340;2022-10-26T08:07:50;8.27;;;5.80;;
43835;SDS011;39345;43.964;25.340;2022-10-26T08:10:18;11.55;;;5.97;;
43835;SDS011;39345;43.964;25.340;2022-10-26T08:12:45;10.32;;;5.80;;
43835;SDS011;39345;43.964;25.340;2022-10-26T08:15:12;47.92;;;7.85;;
43835;SDS011;39345;43.964;25.340;2022-10-26T08:17:40;82.57;;;8.55;;
43835;SDS011;39345;43.964;25.340;2022-10-26T08:20:07;49.85;;;7.90;;
43835;SDS011;39345;43.964;25.340;2022-10-26T08:22:35;15.57;;;7.28;;
43835;SDS011;39345;43.964;25.340;2022-10-26T08:25:02;19.88;;;7.22;;
43835;SDS011;39345;43.964;25.340;2022-10-26T08:27:30;14.27;;;6.60;;
43835;SDS011;39345;43.964;25.340;2022-10-26T08:29:57;11.20;;;6.05;;
43835;SDS011;39345;43.964;25.340;2022-10-26T08:32:25;10.10;;;5.53;;
43835;SDS011;39345;43.964;25.340;2022-10-26T08:34:52;9.45;;;5.38;;
43835;SDS011;39345;43.964;25.340;2022-10-26T08:37:20;7.00;;;4.80;;
43835;SDS011;39345;43.964;25.340;2022-10-26T08:39:48;8.63;;;4.80;;
43835;SDS011;39345;43.964;25.340;2022-10-26T08:42:24;7.63;;;4.78;;
43835;SDS011;39345;43.964;25.340;2022-10-26T08:44:56;10.50;;;5.55;;
43835;SDS011;39345;43.964;25.340;2022-10-26T08:47:27;9.95;;;5.25;;
43835;SDS011;39345;43.964;25.340;2022-10-26T08:50:10;11.23;;;5.10;;
43835;SDS011;39345;43.964;25.340;2022-10-26T08:55:09;9.65;;;5.22;;
43835;SDS011;39345;43.964;25.340;2022-10-26T08:57:38;9.35;;;5.30;;
43835;SDS011;39345;43.964;25.340;2022-10-26T09:00:10;8.23;;;5.05;;
43835;SDS011;39345;43.964;25.340;2022-10-26T09:02:40;7.80;;;5.18;;
43835;SDS011;39345;43.964;25.340;2022-10-26T09:05:13;6.45;;;5.00;;
43835;SDS011;39345;43.964;25.340;2022-10-26T09:10:38;9.45;;;5.20;;
43835;SDS011;39345;43.964;25.340;2022-10-26T09:16:02;6.30;;;4.57;;
43835;SDS011;39345;43.964;25.340;2022-10-26T09:26:12;10.18;;;4.35;;
43835;SDS011;39345;43.964;25.340;2022-10-26T09:28:40;7.00;;;4.45;;
43835;SDS011;39345;43.964;25.340;2022-10-26T09:31:08;8.32;;;4.43;;
43835;SDS011;39345;43.964;25.340;2022-10-26T09:33:38;8.10;;;4.43;;
43835;SDS011;39345;43.964;25.340;2022-10-26T09:36:08;7.22;;;4.13;;
43835;SDS011;39345;43.964;25.340;2022-10-26T09:38:50;8.82;;;3.90;;
43835;SDS011;39345;43.964;25.340;2022-10-26T09:41:28;12.80;;;4.28;;
43835;SDS011;39345;43.964;25.340;2022-10-26T09:44:06;7.63;;;4.78;;
43835;SDS011;39345;43.964;25.340;2022-10-26T09:46:48;12.70;;;4.75;;
43835;SDS011;39345;43.964;25.340;2022-10-26T09:49:19;10.07;;;4.75;;
43835;SDS011;39345;43.964;25.340;2022-10-26T09:51:50;7.05;;;4.20;;
43835;SDS011;39345;43.964;25.340;2022-10-26T09:54:18;11.77;;;4.47;;
43835;SDS011;39345;43.964;25.340;2022-10-26T09:56:48;10.65;;;5.82;;
43835;SDS011;39345;43.964;25.340;2022-10-26T09:59:17;8.90;;;5.18;;
43835;SDS011;39345;43.964;25.340;2022-10-26T10:01:46;11.55;;;4.60;;
43835;SDS011;39345;43.964;25.340;2022-10-26T10:06:49;11.80;;;4.55;;
43835;SDS011;39345;43.964;25.340;2022-10-26T10:09:17;8.30;;;4.40;;
43835;SDS011;39345;43.964;25.340;2022-10-26T10:14:30;9.83;;;4.30;;
43835;SDS011;39345;43.964;25.340;2022-10-26T10:17:07;12.60;;;3.92;;
43835;SDS011;39345;43.964;25.340;2022-10-26T10:19:47;5.90;;;3.72;;
43835;SDS011;39345;43.964;25.340;2022-10-26T10:24:52;8.00;;;3.80;;
43835;SDS011;39345;43.964;25.340;2022-10-26T10:27:20;10.07;;;4.38;;
43835;SDS011;39345;43.964;25.340;2022-10-26T10:29:55;15.93;;;4.53;;
43835;SDS011;39345;43.964;25.340;2022-10-26T10:32:30;12.73;;;4.50;;
43835;SDS011;39345;43.964;25.340;2022-10-26T10:37:40;10.02;;;4.10;;
43835;SDS011;39345;43.964;25.340;2022-10-26T10:40:19;8.27;;;3.80;;
43835;SDS011;39345;43.964;25.340;2022-10-26T10:42:48;10.57;;;3.92;;
43835;SDS011;39345;43.964;25.340;2022-10-26T10:47:57;9.90;;;3.85;;
43835;SDS011;39345;43.964;25.340;2022-10-26T10:50:25;13.73;;;5.45;;
43835;SDS011;39345;43.964;25.340;2022-10-26T10:52:52;9.50;;;4.88;;
43835;SDS011;39345;43.964;25.340;2022-10-26T10:55:20;13.20;;;5.28;;
43835;SDS011;39345;43.964;25.340;2022-10-26T10:58:13;7.43;;;4.10;;
43835;SDS011;39345;43.964;25.340;2022-10-26T11:00:43;9.95;;;4.60;;
43835;SDS011;39345;43.964;25.340;2022-10-26T11:03:20;8.55;;;4.18;;
43835;SDS011;39345;43.964;25.340;2022-10-26T11:08:26;10.10;;;3.50;;
43835;SDS011;39345;43.964;25.340;2022-10-26T11:16:31;6.00;;;3.40;;
43835;SDS011;39345;43.964;25.340;2022-10-26T11:21:46;7.13;;;3.60;;
43835;SDS011;39345;43.964;25.340;2022-10-26T11:27:16;6.93;;;3.88;;
43835;SDS011;39345;43.964;25.340;2022-10-26T11:29:57;9.40;;;5.15;;
43835;SDS011;39345;43.964;25.340;2022-10-26T11:32:33;15.95;;;4.15;;
43835;SDS011;39345;43.964;25.340;2022-10-26T11:40:21;9.48;;;3.53;;
43835;SDS011;39345;43.964;25.340;2022-10-26T11:42:53;12.25;;;4.30;;
43835;SDS011;39345;43.964;25.340;2022-10-26T11:45:24;33.25;;;10.45;;
43835;SDS011;39345;43.964;25.340;2022-10-26T11:48:04;8.48;;;3.42;;
43835;SDS011;39345;43.964;25.340;2022-10-26T11:50:33;4.60;;;3.22;;
43835;SDS011;39345;43.964;25.340;2022-10-26T11:53:07;19.88;;;3.80;;
43835;SDS011;39345;43.964;25.340;2022-10-26T11:55:37;393.88;;;24.77;;
43835;SDS011;39345;43.964;25.340;2022-10-26T11:58:05;76.88;;;7.88;;
43835;SDS011;39345;43.964;25.340;2022-10-26T12:00:34;25.30;;;3.95;;
43835;SDS011;39345;43.964;25.340;2022-10-26T12:03:08;18.58;;;3.63;;
43835;SDS011;39345;43.964;25.340;2022-10-26T12:08:12;9.88;;;4.10;;
43835;SDS011;39345;43.964;25.340;2022-10-26T12:10:40;7.85;;;3.45;;
43835;SDS011;39345;43.964;25.340;2022-10-26T12:15:58;38.22;;;4.85;;
43835;SDS011;39345;43.964;25.340;2022-10-26T12:18:35;12.45;;;3.28;;
43835;SDS011;39345;43.964;25.340;2022-10-26T12:21:22;12.70;;;3.60;;
43835;SDS011;39345;43.964;25.340;2022-10-26T12:23:54;11.00;;;3.42;;
43835;SDS011;39345;43.964;25.340;2022-10-26T12:34:03;7.78;;;5.53;;
43835;SDS011;39345;43.964;25.340;2022-10-26T12:47:07;5.60;;;3.58;;
43835;SDS011;39345;43.964;25.340;2022-10-26T12:52:25;4.30;;;2.90;;
43835;SDS011;39345;43.964;25.340;2022-10-26T12:55:04;6.70;;;3.25;;
43835;SDS011;39345;43.964;25.340;2022-10-26T13:00:13;6.05;;;3.33;;
43835;SDS011;39345;43.964;25.340;2022-10-26T13:08:02;4.43;;;2.90;;
43835;SDS011;39345;43.964;25.340;2022-10-26T13:13:01;8.38;;;2.65;;
43835;SDS011;39345;43.964;25.340;2022-10-26T13:15:40;5.53;;;2.85;;
43835;SDS011;39345;43.964;25.340;2022-10-26T13:18:18;5.70;;;3.03;;
43835;SDS011;39345;43.964;25.340;2022-10-26T13:20:57;4.65;;;2.70;;
43835;SDS011;39345;43.964;25.340;2022-10-26T13:23:26;4.78;;;3.00;;
43835;SDS011;39345;43.964;25.340;2022-10-26T13:26:04;4.03;;;2.50;;
43835;SDS011;39345;43.964;25.340;2022-10-26T13:33:51;3.88;;;2.88;;
43835;SDS011;39345;43.964;25.340;2022-10-26T13:36:25;7.30;;;2.63;;
43835;SDS011;39345;43.964;25.340;2022-10-26T13:38:55;4.47;;;2.55;;
43835;SDS011;39345;43.964;25.340;2022-10-26T13:41:33;6.95;;;2.95;;
43835;SDS011;39345;43.964;25.340;2022-10-26T13:44:02;5.95;;;2.97;;
43835;SDS011;39345;43.964;25.340;2022-10-26T13:46:33;6.35;;;3.28;;
43835;SDS011;39345;43.964;25.340;2022-10-26T13:49:06;5.13;;;2.90;;
43835;SDS011;39345;43.964;25.340;2022-10-26T13:51:39;8.43;;;3.55;;
43835;SDS011;39345;43.964;25.340;2022-10-26T13:54:14;6.90;;;4.25;;
43835;SDS011;39345;43.964;25.340;2022-10-26T13:56:44;17.92;;;4.57;;
43835;SDS011;39345;43.964;25.340;2022-10-26T13:59:14;5.63;;;3.35;;
43835;SDS011;39345;43.964;25.340;2022-10-26T14:02:03;7.57;;;3.10;;
43835;SDS011;39345;43.964;25.340;2022-10-26T14:04:31;4.82;;;3.20;;
43835;SDS011;39345;43.964;25.340;2022-10-26T14:06:58;9.00;;;4.03;;
43835;SDS011;39345;43.964;25.340;2022-10-26T14:09:26;6.63;;;3.60;;
43835;SDS011;39345;43.964;25.340;2022-10-26T14:11:55;7.00;;;3.83;;
43835;SDS011;39345;43.964;25.340;2022-10-26T14:14:30;8.13;;;3.70;;
43835;SDS011;39345;43.964;25.340;2022-10-26T14:16:58;7.53;;;4.10;;
43835;SDS011;39345;43.964;25.340;2022-10-26T14:19:27;8.48;;;5.43;;
43835;SDS011;39345;43.964;25.340;2022-10-26T14:21:56;8.07;;;4.70;;
43835;SDS011;39345;43.964;25.340;2022-10-26T14:24:33;5.88;;;3.63;;
43835;SDS011;39345;43.964;25.340;2022-10-26T14:27:19;11.63;;;4.35;;
43835;SDS011;39345;43.964;25.340;2022-10-26T14:29:47;6.90;;;4.07;;
43835;SDS011;39345;43.964;25.340;2022-10-26T14:32:34;10.07;;;3.78;;
43835;SDS011;39345;43.964;25.340;2022-10-26T14:35:03;8.52;;;4.57;;
43835;SDS011;39345;43.964;25.340;2022-10-26T14:39:57;8.85;;;5.18;;
43835;SDS011;39345;43.964;25.340;2022-10-26T14:42:29;20.27;;;6.07;;
43835;SDS011;39345;43.964;25.340;2022-10-26T14:44:57;11.80;;;5.13;;
43835;SDS011;39345;43.964;25.340;2022-10-26T14:47:28;12.75;;;5.35;;
43835;SDS011;39345;43.964;25.340;2022-10-26T14:49:57;11.95;;;4.50;;
43835;SDS011;39345;43.964;25.340;2022-10-26T14:52:32;15.05;;;5.63;;
43835;SDS011;39345;43.964;25.340;2022-10-26T14:57:38;11.70;;;5.22;;
43835;SDS011;39345;43.964;25.340;2022-10-26T15:00:15;14.07;;;5.65;;
43835;SDS011;39345;43.964;25.340;2022-10-26T15:02:44;8.80;;;4.80;;
43835;SDS011;39345;43.964;25.340;2022-10-26T15:05:28;12.00;;;5.35;;
43835;SDS011;39345;43.964;25.340;2022-10-26T15:08:01;8.43;;;4.72;;
43835;SDS011;39345;43.964;25.340;2022-10-26T15:10:44;13.57;;;5.75;;
43835;SDS011;39345;43.964;25.340;2022-10-26T15:15:45;23.52;;;6.40;;
43835;SDS011;39345;43.964;25.340;2022-10-26T15:18:18;17.55;;;7.55;;
43835;SDS011;39345;43.964;25.340;2022-10-26T15:20:46;20.23;;;8.18;;
43835;SDS011;39345;43.964;25.340;2022-10-26T15:23:15;10.82;;;7.50;;
43835;SDS011;39345;43.964;25.340;2022-10-26T15:25:53;17.10;;;9.68;;
43835;SDS011;39345;43.964;25.340;2022-10-26T15:28:22;23.08;;;11.48;;
43835;SDS011;39345;43.964;25.340;2022-10-26T15:31:01;22.23;;;12.50;;
43835;SDS011;39345;43.964;25.340;2022-10-26T15:33:29;21.60;;;12.38;;
43835;SDS011;39345;43.964;25.340;2022-10-26T15:38:33;19.60;;;11.63;;
43835;SDS011;39345;43.964;25.340;2022-10-26T15:41:04;25.17;;;11.27;;
43835;SDS011;39345;43.964;25.340;2022-10-26T15:43:32;28.65;;;13.52;;
43835;SDS011;39345;43.964;25.340;2022-10-26T15:46:00;20.60;;;12.55;;
43835;SDS011;39345;43.964;25.340;2022-10-26T15:48:27;25.17;;;14.05;;
43835;SDS011;39345;43.964;25.340;2022-10-26T15:50:57;24.80;;;15.57;;
43835;SDS011;39345;43.964;25.340;2022-10-26T15:53:25;33.15;;;20.13;;
43835;SDS011;39345;43.964;25.340;2022-10-26T15:55:54;40.25;;;20.67;;
43835;SDS011;39345;43.964;25.340;2022-10-26T15:58:22;42.90;;;25.27;;
43835;SDS011;39345;43.964;25.340;2022-10-26T16:00:50;46.22;;;24.23;;
43835;SDS011;39345;43.964;25.340;2022-10-26T16:03:18;40.05;;;23.40;;
43835;SDS011;39345;43.964;25.340;2022-10-26T16:05:47;43.90;;;22.70;;
43835;SDS011;39345;43.964;25.340;2022-10-26T16:08:16;49.17;;;27.10;;
43835;SDS011;39345;43.964;25.340;2022-10-26T16:10:44;65.43;;;35.38;;
43835;SDS011;39345;43.964;25.340;2022-10-26T16:13:12;77.13;;;40.25;;
43835;SDS011;39345;43.964;25.340;2022-10-26T16:15:40;77.65;;;41.85;;
43835;SDS011;39345;43.964;25.340;2022-10-26T16:18:07;123.90;;;58.83;;
43835;SDS011;39345;43.964;25.340;2022-10-26T16:20:35;127.70;;;64.18;;
43835;SDS011;39345;43.964;25.340;2022-10-26T16:23:03;148.00;;;80.60;;
43835;SDS011;39345;43.964;25.340;2022-10-26T16:25:38;126.50;;;65.68;;
43835;SDS011;39345;43.964;25.340;2022-10-26T16:28:06;122.60;;;63.28;;
43835;SDS011;39345;43.964;25.340;2022-10-26T16:30:33;127.80;;;62.33;;
43835;SDS011;39345;43.964;25.340;2022-10-26T16:33:02;114.40;;;57.95;;
43835;SDS011;39345;43.964;25.340;2022-10-26T16:35:30;134.05;;;66.15;;
43835;SDS011;39345;43.964;25.340;2022-10-26T16:37:58;166.57;;;80.93;;
43835;SDS011;39345;43.964;25.340;2022-10-26T16:40:25;180.68;;;90.50;;
43835;SDS011;39345;43.964;25.340;2022-10-26T16:42:53;268.20;;;125.25;;
43835;SDS011;39345;43.964;25.340;2022-10-26T16:45:20;244.10;;;114.65;;
43835;SDS011;39345;43.964;25.340;2022-10-26T16:47:48;259.80;;;127.63;;
43835;SDS011;39345;43.964;25.340;2022-10-26T16:50:16;255.50;;;133.02;;
43835;SDS011;39345;43.964;25.340;2022-10-26T16:52:46;264.65;;;133.73;;
43835;SDS011;39345;43.964;25.340;2022-10-26T16:55:13;251.88;;;127.85;;
43835;SDS011;39345;43.964;25.340;2022-10-26T16:57:42;233.35;;;117.68;;
43835;SDS011;39345;43.964;25.340;2022-10-26T17:00:09;228.10;;;115.78;;
43835;SDS011;39345;43.964;25.340;2022-10-26T17:02:37;177.15;;;88.80;;
43835;SDS011;39345;43.964;25.340;2022-10-26T17:05:04;187.48;;;86.65;;
43835;SDS011;39345;43.964;25.340;2022-10-26T17:07:33;225.95;;;107.05;;
43835;SDS011;39345;43.964;25.340;2022-10-26T17:10:01;181.13;;;89.35;;
43835;SDS011;39345;43.964;25.340;2022-10-26T17:12:28;144.65;;;70.88;;
43835;SDS011;39345;43.964;25.340;2022-10-26T17:14:56;133.32;;;63.72;;